Cabanatuan, Philippines

3:46 PM PHT on September 03, 2014 (GMT +0800)
Clark International | Change Station
CLOSE
Current Station
Airport
Location: Angeles / Pampanga,
Elevation: 509 ft
Nearby Weather Stations

Elev 509 ft 15.19 °N, 120.56 °E | Updated 46 minutes ago

Mostly Cloudy
Mostly Cloudy
86 °F
Feels Like 97 °F
N
10
Wind Variable Wind from SSE

Today
High -- | Low -- °F
--% Chance of Precip.
Yesterday
High -- | Low -- °F
Precip. -- in
5:43 AM 6:07 PM
First Quarter, 60% visible
Pressure 29.74 in
Visibility 6.2 miles
Clouds Scattered Clouds 3600 ft
Mostly Cloudy 10000 ft
Heat Index 97 °F
Dew Point 77 °F
Humidity 74%
Rainfall 0.00 in
Snow Depth Not available.
UV 5 out of 12
Pollen Not available.
Air Quality Not available.
Flu Activity Not available.
METAR RPLC 030700Z 15009KT 9999 SCT036 BKN100 30/25 Q1007 RMK NOSIG , A2973

More Conditions Fewer Conditions

Pressure 29.74 in
Visibility 6.2 miles
Clouds Scattered Clouds 3600 ft
Mostly Cloudy 10000 ft
Heat Index 97 °F
Dew Point 77 °F
Humidity 74%
Rainfall 0.00 in
Snow Depth Not available.
UV 5 out of 12
Pollen Not available.
Air Quality Not available.
Flu Activity Not available.
METAR RPLC 030700Z 15009KT 9999 SCT036 BKN100 30/25 Q1007 RMK NOSIG , A2973

More Conditions Fewer Conditions

10-Day Weather Forecast

Almanac

Astronomy

Sep. 03, 2014 Rise Set
Actual Time 5:43 AM PHT 6:07 PM PHT
Civil Twilight 5:21 AM PHT 6:29 PM PHT
Nautical Twilight 4:56 AM PHT 6:54 PM PHT
Astronomical Twilight 4:31 AM PHT 7:19 PM PHT
Moon 12:47 PM PHT No Moon Set
Length of Visible Light 13h 07m
Length of Day
12h 23m
Tomorrow will be 0m 50s shorter.
First Quarter, 60% of the Moon is Illuminated
Today
First Quarter
Sep 8
Full
Sep 15
Last Quarter
Sep 24
New
Oct 1
First Quarter

Yesterday's Extremes

Country Highs Country Lows

Community

WunderPhotos

Upload Photos

1,749,899 photos uploaded!

Nearby

Snow Depth

Not available.

Earthquake Activity

City Distance Mag. Time & Date
No recent earthquake activity has been reported nearby.
Minimum magnitude displayed is 2.5.

Coastal Water Temperatures

Place Temperature
No Stations Reporting

Nearby Weather Stations